Terminal Aerodrome Forecast
Issued by NWS

Home | Current Version | Previous Version | Text Only | Print | Product List | Glossary On
Versions: 1 2 3 4 5 6 7 8 9 10 11 12 13 14
136
FTUS41 KCAR 010536
TAFHUL
TAF
KHUL 010536Z 0106/0206 VRB03KT P6SM SCT200
     FM012000 18006KT P6SM BKN080
     FM020000 18006KT P6SM OVC040
     FM020300 18006KT P6SM VCSH OVC030=

USA.gov is the U.S. government's official web portal to all federal, state and local government web resources and services.